KRLD Airport (Richland) Information

FAA: RLD - ICAO: KRLD

KRLD Airport Location

State Washington
County Benton
City Richland
KRLD Airport is 2 miles northwest of Richland, WA.
Latitude 46-18-20.3000N
Longitude 119-18-15.1000W
Elevation 394ft

KRLD Airport METARs

METAR KRLD 060635Z AUTO 26004KT 10SM SCT110 22/13 A2984 RMK AO2 T02180132
Altimeter 29.84"
Temperature 21.8°C (71.2°F)
Wind 260° at 4KT
Clouds scattered at 11,000ft
Visibility 10.0mi
Time observed: 2022-07-06T06:35:00Z

KRLD Airport Details

Status Operational
Activation October 1950
Ownership Public
Usage Public
Chart SEATTLE
ATC on-site No
Beacon schedule sunset-sunrise
Beacon color clear green

KRLD Airport Contacts

Owner PORT OF BENTON
Owner address 3250 PORT OF BENTON BLVD, RICHLAND, WA 99354
Owner phone 509-375-3060
Manager JOSEPH D'AMICO
Manager address 250 CENTER PARK WAY, SEQUIM, WA 98382
Manager phone 360-797-0200

KRLD Airport (Richland) Radio Frequencies

KRLD (Airport) Radio Frequencies

UNICOM 122.7
Common traffic advisory frequency (CTAF) 122.7